Time;durP1;ratioP1;P1;durP2;ratioP2;P2;SDS_P1;SDS_P2;PMS_P1;PMS_P2;Temp;Humidity;BMP_temperature;BMP_pressure;BME280_temperature;BME280_humidity;BME280_pressure;Samples;Min_cycle;Max_cycle;Signal;HPM_P1;HPM_P2
2023/10/27 00:01:26;;;;;;;1.48;0.40;;;;;;;;;;5060697;28;20289;-71
2023/10/27 00:03:54;;;;;;;1.75;0.40;;;;;;;;;;5060441;28;20401;-71
2023/10/27 00:06:20;;;;;;;1.35;0.60;;;;;;;;;;5060848;28;20087;-71
2023/10/27 00:08:47;;;;;;;1.67;0.50;;;;;;;;;;5059853;28;20052;-69
2023/10/27 00:11:14;;;;;;;1.92;0.40;;;;;;;;;;5060333;28;20059;-71
2023/10/27 00:13:40;;;;;;;2.00;0.30;;;;;;;;;;5060577;28;20045;-71
2023/10/27 00:16:10;;;;;;;2.20;0.43;;;;;;;;;;5060478;28;20045;-72
2023/10/27 00:18:37;;;;;;;5.10;0.60;;;;;;;;;;5040259;28;20041;-70
2023/10/27 00:21:04;;;;;;;1.45;0.30;;;;;;;;;;5040383;28;20108;-71
2023/10/27 00:23:32;;;;;;;2.63;0.50;;;;;;;;;;5039886;28;20069;-71
2023/10/27 00:25:59;;;;;;;3.67;0.60;;;;;;;;;;5040015;28;20089;-70
2023/10/27 00:28:26;;;;;;;2.53;0.55;;;;;;;;;;5039672;28;20280;-69
2023/10/27 00:30:53;;;;;;;2.75;0.38;;;;;;;;;;5039999;28;20233;-70
2023/10/27 00:33:20;;;;;;;2.90;0.50;;;;;;;;;;5040143;28;20041;-72
2023/10/27 00:35:53;;;;;;;0.30;0.20;;;;;;;;;;5040194;28;20061;-71
2023/10/27 00:38:20;;;;;;;2.03;0.60;;;;;;;;;;5039615;28;20108;-71
2023/10/27 00:40:47;;;;;;;2.00;0.38;;;;;;;;;;5022163;28;20093;-72
2023/10/27 00:43:18;;;;;;;1.63;0.43;;;;;;;;;;5039804;28;20074;-71
2023/10/27 00:45:54;;;;;;;4.47;0.80;;;;;;;;;;5037446;28;20052;-71
2023/10/27 00:48:21;;;;;;;3.15;0.77;;;;;;;;;;5039789;28;20345;-71
2023/10/27 00:50:49;;;;;;;3.35;0.50;;;;;;;;;;5022778;28;20045;-71
2023/10/27 00:53:19;;;;;;;4.88;0.68;;;;;;;;;;5039784;28;20117;-71
2023/10/27 00:55:46;;;;;;;4.53;0.57;;;;;;;;;;5040320;28;20057;-70
2023/10/27 00:58:13;;;;;;;3.55;0.80;;;;;;;;;;5040162;28;20053;-71
2023/10/27 01:00:41;;;;;;;5.57;0.60;;;;;;;;;;5040187;28;20688;-70
2023/10/27 01:03:08;;;;;;;2.38;0.47;;;;;;;;;;5039553;28;20046;-71
2023/10/27 01:05:35;;;;;;;1.75;0.40;;;;;;;;;;5042046;28;20091;-70
2023/10/27 01:08:04;;;;;;;2.10;0.77;;;;;;;;;;5043469;28;20341;-71
2023/10/27 01:10:31;;;;;;;5.70;0.95;;;;;;;;;;5044355;28;20108;-71
2023/10/27 01:12:58;;;;;;;3.58;0.47;;;;;;;;;;5043874;28;20051;-70
2023/10/27 01:15:24;;;;;;;2.22;0.70;;;;;;;;;;5043808;28;20046;-70
2023/10/27 01:17:51;;;;;;;1.98;0.52;;;;;;;;;;5043866;28;20046;-70
2023/10/27 01:20:18;;;;;;;4.40;0.50;;;;;;;;;;5043796;28;20127;-71
2023/10/27 01:22:48;;;;;;;2.10;0.60;;;;;;;;;;5043636;28;20426;-71
2023/10/27 01:25:16;;;;;;;3.67;0.55;;;;;;;;;;5043307;28;20049;-70
2023/10/27 01:27:44;;;;;;;1.75;0.50;;;;;;;;;;5043945;28;20156;-72
2023/10/27 01:30:11;;;;;;;3.28;0.50;;;;;;;;;;5043581;28;20387;-70
2023/10/27 01:32:40;;;;;;;4.88;0.35;;;;;;;;;;5043732;28;20045;-69
2023/10/27 01:35:07;;;;;;;3.45;0.40;;;;;;;;;;5043691;28;20045;-69
2023/10/27 01:37:34;;;;;;;4.15;0.55;;;;;;;;;;5043517;28;20116;-69
2023/10/27 01:40:05;;;;;;;3.22;0.57;;;;;;;;;;5042808;28;20129;-71
2023/10/27 01:42:34;;;;;;;2.50;0.47;;;;;;;;;;5043546;28;20084;-70
2023/10/27 01:45:08;;;;;;;2.63;0.85;;;;;;;;;;5043136;28;20385;-70
2023/10/27 01:47:37;;;;;;;2.75;0.60;;;;;;;;;;5043543;28;20116;-71
2023/10/27 01:50:08;;;;;;;2.17;0.50;;;;;;;;;;5043444;28;20113;-71
2023/10/27 01:52:37;;;;;;;3.13;0.60;;;;;;;;;;5043461;28;20046;-72
2023/10/27 01:55:07;;;;;;;1.58;0.30;;;;;;;;;;5042652;28;20334;-70
2023/10/27 01:57:34;;;;;;;2.80;0.47;;;;;;;;;;5042976;28;20180;-71
2023/10/27 02:00:01;;;;;;;3.03;0.50;;;;;;;;;;5042697;28;20045;-71
2023/10/27 02:02:28;;;;;;;5.30;0.70;;;;;;;;;;5043020;28;20046;-71
2023/10/27 02:04:54;;;;;;;2.22;0.50;;;;;;;;;;5042909;28;20048;-70
2023/10/27 02:07:24;;;;;;;3.40;0.57;;;;;;;;;;5042728;28;20041;-71
2023/10/27 02:09:51;;;;;;;3.45;0.40;;;;;;;;;;5042897;28;20045;-71
2023/10/27 02:12:18;;;;;;;3.17;0.55;;;;;;;;;;5042445;28;20065;-70
2023/10/27 02:14:45;;;;;;;1.67;0.40;;;;;;;;;;5042914;28;20049;-71
2023/10/27 02:17:12;;;;;;;1.63;0.50;;;;;;;;;;5042937;28;20049;-71
2023/10/27 02:19:39;;;;;;;2.60;0.50;;;;;;;;;;5042476;28;20045;-71
2023/10/27 02:22:05;;;;;;;1.75;0.32;;;;;;;;;;5042855;28;20049;-71
2023/10/27 02:24:32;;;;;;;3.65;0.45;;;;;;;;;;5042121;28;20112;-70
2023/10/27 02:26:59;;;;;;;4.20;0.63;;;;;;;;;;5042683;28;20056;-71
2023/10/27 02:29:26;;;;;;;2.35;0.40;;;;;;;;;;5042648;28;20061;-72
2023/10/27 02:31:52;;;;;;;2.22;0.40;;;;;;;;;;5042580;28;20053;-70
2023/10/27 02:34:19;;;;;;;4.57;0.60;;;;;;;;;;5042226;28;20094;-75
2023/10/27 02:36:46;;;;;;;1.95;0.47;;;;;;;;;;5042332;28;20080;-71
2023/10/27 02:39:13;;;;;;;1.50;0.45;;;;;;;;;;5041936;28;20099;-71
2023/10/27 02:41:39;;;;;;;1.88;0.47;;;;;;;;;;5042208;28;20061;-72
2023/10/27 02:44:06;;;;;;;2.42;0.45;;;;;;;;;;5042333;28;20049;-73
2023/10/27 02:46:34;;;;;;;0.75;0.32;;;;;;;;;;5042096;28;20238;-71
2023/10/27 02:49:05;;;;;;;1.38;0.50;;;;;;;;;;5041968;28;20242;-70
2023/10/27 02:51:32;;;;;;;2.22;0.57;;;;;;;;;;5042237;28;20073;-70
2023/10/27 02:53:59;;;;;;;2.97;0.57;;;;;;;;;;5041511;28;20286;-71
2023/10/27 02:56:25;;;;;;;2.45;0.50;;;;;;;;;;5041719;28;20108;-71
2023/10/27 02:58:52;;;;;;;4.07;0.43;;;;;;;;;;5042226;28;20108;-71
2023/10/27 03:01:19;;;;;;;1.55;0.50;;;;;;;;;;5041612;28;20045;-71
2023/10/27 03:03:46;;;;;;;4.40;0.63;;;;;;;;;;5024362;28;20045;-71
2023/10/27 03:06:12;;;;;;;4.78;0.55;;;;;;;;;;5041495;28;20184;-71
2023/10/27 03:08:42;;;;;;;1.08;0.40;;;;;;;;;;5040953;28;20038;-73
2023/10/27 03:11:09;;;;;;;1.60;0.40;;;;;;;;;;5041513;28;20292;-73
2023/10/27 03:13:36;;;;;;;5.57;0.55;;;;;;;;;;5041874;28;20046;-73
2023/10/27 03:16:03;;;;;;;2.08;0.50;;;;;;;;;;5041719;28;20073;-71
2023/10/27 03:18:33;;;;;;;1.90;0.40;;;;;;;;;;5041544;28;20092;-71
2023/10/27 03:21:03;;;;;;;1.75;0.65;;;;;;;;;;5041545;28;20046;-70
2023/10/27 03:23:31;;;;;;;2.30;0.50;;;;;;;;;;5041147;28;20112;-71
2023/10/27 03:25:58;;;;;;;2.55;0.50;;;;;;;;;;5040953;28;20432;-71
2023/10/27 03:28:25;;;;;;;2.47;0.50;;;;;;;;;;5040805;28;20112;-71
2023/10/27 03:30:53;;;;;;;1.73;0.50;;;;;;;;;;5041150;28;20109;-71
2023/10/27 03:33:19;;;;;;;3.67;0.60;;;;;;;;;;5041310;28;20104;-71
2023/10/27 03:35:47;;;;;;;2.53;0.40;;;;;;;;;;5041028;28;20045;-70
2023/10/27 03:38:14;;;;;;;1.58;0.35;;;;;;;;;;5041078;28;20046;-71
2023/10/27 03:40:45;;;;;;;1.92;0.40;;;;;;;;;;5041040;28;20124;-70
2023/10/27 03:43:12;;;;;;;1.00;0.45;;;;;;;;;;5041179;28;20083;-71
2023/10/27 03:45:38;;;;;;;3.30;0.55;;;;;;;;;;5040875;28;20045;-71
2023/10/27 03:48:05;;;;;;;4.50;0.70;;;;;;;;;;5040979;28;20059;-71
2023/10/27 03:50:32;;;;;;;2.03;0.40;;;;;;;;;;5041018;28;20053;-70
2023/10/27 03:52:59;;;;;;;3.55;0.60;;;;;;;;;;5041101;28;20045;-70
2023/10/27 03:55:26;;;;;;;5.60;0.60;;;;;;;;;;5041059;28;20052;-71
2023/10/27 03:57:55;;;;;;;1.83;0.45;;;;;;;;;;5040924;28;20045;-72
2023/10/27 04:00:24;;;;;;;2.05;0.47;;;;;;;;;;5040702;28;20117;-70
2023/10/27 04:02:51;;;;;;;7.10;1.20;;;;;;;;;;5040900;28;20113;-70
2023/10/27 04:05:18;;;;;;;2.13;0.55;;;;;;;;;;5040585;28;20049;-71
2023/10/27 04:07:45;;;;;;;2.97;0.47;;;;;;;;;;5040885;28;20045;-72
2023/10/27 04:10:12;;;;;;;1.15;0.47;;;;;;;;;;5040566;28;20053;-71
2023/10/27 04:12:39;;;;;;;1.38;0.50;;;;;;;;;;5040264;28;20061;-71
2023/10/27 04:15:05;;;;;;;1.52;0.52;;;;;;;;;;5040526;28;20468;-70
2023/10/27 04:17:32;;;;;;;1.83;0.57;;;;;;;;;;5040698;28;20112;-70
2023/10/27 04:19:59;;;;;;;4.80;0.60;;;;;;;;;;5040302;28;20087;-71
2023/10/27 04:22:26;;;;;;;2.00;0.50;;;;;;;;;;5040361;28;20049;-70
2023/10/27 04:24:52;;;;;;;3.03;0.75;;;;;;;;;;5040332;28;20121;-70
2023/10/27 04:27:19;;;;;;;4.10;0.60;;;;;;;;;;5040433;28;20075;-71
2023/10/27 04:29:46;;;;;;;2.10;0.50;;;;;;;;;;5040732;28;20045;-70
2023/10/27 04:32:15;;;;;;;3.22;0.70;;;;;;;;;;5040137;28;20222;-71
2023/10/27 04:34:42;;;;;;;4.13;1.00;;;;;;;;;;5040375;28;20049;-71
2023/10/27 04:37:12;;;;;;;3.00;0.52;;;;;;;;;;5040237;28;20049;-71
2023/10/27 04:39:38;;;;;;;4.30;0.60;;;;;;;;;;5038846;28;20052;-71
2023/10/27 04:42:05;;;;;;;3.17;0.63;;;;;;;;;;5040114;28;20361;-69
2023/10/27 04:44:35;;;;;;;2.78;0.77;;;;;;;;;;5040043;28;20046;-70
2023/10/27 04:47:01;;;;;;;2.70;0.40;;;;;;;;;;5039628;28;20289;-71
2023/10/27 04:49:28;;;;;;;2.95;0.80;;;;;;;;;;5039632;28;20053;-70
2023/10/27 04:51:55;;;;;;;1.67;0.55;;;;;;;;;;5039700;28;20108;-70
2023/10/27 04:54:22;;;;;;;3.03;0.75;;;;;;;;;;5039252;28;20046;-70
2023/10/27 04:56:49;;;;;;;3.05;0.50;;;;;;;;;;5038422;28;20061;-72
2023/10/27 04:59:18;;;;;;;2.13;0.57;;;;;;;;;;5038540;28;20268;-71
2023/10/27 05:01:48;;;;;;;2.35;0.60;;;;;;;;;;5039729;28;20041;-71
2023/10/27 05:04:14;;;;;;;5.10;0.88;;;;;;;;;;5037065;28;20380;-71
2023/10/27 05:06:44;;;;;;;0.98;0.50;;;;;;;;;;5039451;28;20080;-70
2023/10/27 05:09:13;;;;;;;3.00;0.60;;;;;;;;;;5035653;28;20049;-72
2023/10/27 05:11:40;;;;;;;0.95;0.38;;;;;;;;;;5039068;28;20273;-72
2023/10/27 05:14:07;;;;;;;1.30;0.70;;;;;;;;;;5039271;28;20116;-71
2023/10/27 05:16:34;;;;;;;1.23;0.32;;;;;;;;;;5039277;28;20370;-70
2023/10/27 05:19:02;;;;;;;3.15;0.80;;;;;;;;;;5039622;28;20232;-70
2023/10/27 05:21:28;;;;;;;2.15;0.63;;;;;;;;;;5039286;28;20045;-71
2023/10/27 05:23:56;;;;;;;1.00;0.35;;;;;;;;;;5038973;28;20079;-69
2023/10/27 05:26:26;;;;;;;5.28;0.75;;;;;;;;;;5039476;28;20268;-70
2023/10/27 05:28:53;;;;;;;5.05;0.50;;;;;;;;;;5039941;28;20096;-71
2023/10/27 05:31:21;;;;;;;1.33;0.45;;;;;;;;;;5039809;28;20076;-70
2023/10/27 05:33:50;;;;;;;1.92;0.70;;;;;;;;;;5039935;28;20045;-72
2023/10/27 05:36:16;;;;;;;1.98;0.52;;;;;;;;;;5039858;28;20054;-70
2023/10/27 05:38:43;;;;;;;3.13;0.77;;;;;;;;;;5039007;28;20055;-71
2023/10/27 05:41:10;;;;;;;2.63;0.60;;;;;;;;;;5039534;28;20049;-70
2023/10/27 05:43:36;;;;;;;1.00;0.40;;;;;;;;;;5039593;28;20100;-71
2023/10/27 05:46:03;;;;;;;3.60;0.55;;;;;;;;;;5039790;28;20061;-71
2023/10/27 05:48:30;;;;;;;2.63;0.50;;;;;;;;;;5039347;28;20060;-70
2023/10/27 05:50:56;;;;;;;2.50;0.50;;;;;;;;;;5040195;28;20116;-70
2023/10/27 05:53:25;;;;;;;1.38;0.40;;;;;;;;;;5043094;28;20068;-70
2023/10/27 05:55:52;;;;;;;1.50;0.40;;;;;;;;;;5043380;28;20175;-70
2023/10/27 05:58:21;;;;;;;1.65;0.47;;;;;;;;;;5042924;28;20337;-70
2023/10/27 06:00:52;;;;;;;3.65;0.50;;;;;;;;;;5042918;28;20045;-72
2023/10/27 06:03:18;;;;;;;4.28;0.60;;;;;;;;;;5042711;28;20052;-70
2023/10/27 06:05:46;;;;;;;1.90;0.38;;;;;;;;;;5042727;28;20388;-69
2023/10/27 06:08:12;;;;;;;1.77;0.40;;;;;;;;;;5042351;28;20055;-71
2023/10/27 06:10:40;;;;;;;1.67;0.40;;;;;;;;;;5042661;28;20045;-69
2023/10/27 06:13:06;;;;;;;1.65;0.43;;;;;;;;;;5042539;28;20045;-70
2023/10/27 06:15:33;;;;;;;0.52;0.30;;;;;;;;;;5042659;28;20041;-70
2023/10/27 06:18:00;;;;;;;1.85;0.40;;;;;;;;;;5042246;28;20052;-70
2023/10/27 06:20:27;;;;;;;2.47;0.90;;;;;;;;;;5042066;28;20422;-71
2023/10/27 06:22:53;;;;;;;3.50;0.70;;;;;;;;;;5042254;28;20314;-71
2023/10/27 06:25:21;;;;;;;1.40;0.50;;;;;;;;;;5041830;28;20041;-71
2023/10/27 06:27:48;;;;;;;1.90;0.60;;;;;;;;;;5041798;28;20117;-70
2023/10/27 06:30:15;;;;;;;2.08;0.70;;;;;;;;;;5042318;28;20049;-70
2023/10/27 06:32:42;;;;;;;2.53;0.45;;;;;;;;;;5041949;28;20053;-70
2023/10/27 06:35:09;;;;;;;1.83;0.60;;;;;;;;;;5041721;28;20387;-70
2023/10/27 06:37:35;;;;;;;3.97;1.00;;;;;;;;;;5041712;28;20322;-73
2023/10/27 06:40:04;;;;;;;2.83;0.60;;;;;;;;;;5041742;28;20048;-69
2023/10/27 06:42:31;;;;;;;1.70;0.50;;;;;;;;;;5041898;28;20041;-69
2023/10/27 06:44:59;;;;;;;2.08;0.70;;;;;;;;;;5042283;28;20112;-70
2023/10/27 06:47:27;;;;;;;2.80;0.50;;;;;;;;;;5042119;28;20326;-69
2023/10/27 06:49:54;;;;;;;1.00;0.47;;;;;;;;;;5042136;28;20049;-70
2023/10/27 06:52:21;;;;;;;1.65;0.65;;;;;;;;;;5042183;28;20045;-71
2023/10/27 06:54:48;;;;;;;3.15;0.70;;;;;;;;;;5041736;28;20248;-71
2023/10/27 06:57:15;;;;;;;1.45;0.70;;;;;;;;;;5041816;28;20356;-71
2023/10/27 06:59:41;;;;;;;2.22;0.75;;;;;;;;;;5041968;28;20049;-71
2023/10/27 07:02:08;;;;;;;1.67;0.70;;;;;;;;;;5039361;28;20052;-73
2023/10/27 07:04:37;;;;;;;0.98;0.60;;;;;;;;;;5041722;28;20140;-71
2023/10/27 07:07:05;;;;;;;1.77;0.80;;;;;;;;;;5036890;28;20064;-71
2023/10/27 07:09:40;;;;;;;2.05;0.80;;;;;;;;;;5029936;28;20049;-72
2023/10/27 07:12:08;;;;;;;2.20;0.82;;;;;;;;;;5030040;28;20053;-73
2023/10/27 07:14:38;;;;;;;4.57;1.25;;;;;;;;;;5029911;28;20045;-71
2023/10/27 07:17:04;;;;;;;1.83;0.80;;;;;;;;;;5030160;28;20045;-70
2023/10/27 07:19:34;;;;;;;2.92;0.90;;;;;;;;;;5030114;28;20050;-71
2023/10/27 07:22:03;;;;;;;2.35;0.80;;;;;;;;;;5030260;28;20045;-70
2023/10/27 07:24:30;;;;;;;2.08;0.77;;;;;;;;;;5029719;28;20116;-71
2023/10/27 07:26:57;;;;;;;5.50;1.00;;;;;;;;;;5029910;28;20140;-71
2023/10/27 07:29:24;;;;;;;3.30;1.40;;;;;;;;;;5033050;28;20045;-70
2023/10/27 07:31:50;;;;;;;3.30;0.93;;;;;;;;;;5030019;28;20045;-72
2023/10/27 07:34:17;;;;;;;2.00;0.65;;;;;;;;;;5029342;28;20049;-71
2023/10/27 07:36:44;;;;;;;2.28;0.80;;;;;;;;;;5029713;28;20041;-71
2023/10/27 07:39:12;;;;;;;3.03;0.77;;;;;;;;;;5029145;28;20049;-70
2023/10/27 07:41:42;;;;;;;2.63;0.80;;;;;;;;;;5030498;28;20045;-70
2023/10/27 07:44:09;;;;;;;1.20;0.45;;;;;;;;;;5035063;28;20049;-71
2023/10/27 07:46:36;;;;;;;1.45;0.63;;;;;;;;;;5032254;28;20433;-72
2023/10/27 07:49:03;;;;;;;4.15;0.70;;;;;;;;;;5029284;28;20566;-72
2023/10/27 07:51:30;;;;;;;2.00;0.80;;;;;;;;;;5029354;28;20038;-73
2023/10/27 07:53:56;;;;;;;2.97;0.65;;;;;;;;;;5028300;28;20049;-73
2023/10/27 07:56:23;;;;;;;4.70;0.75;;;;;;;;;;5035112;28;20262;-70
2023/10/27 07:58:50;;;;;;;2.58;0.63;;;;;;;;;;5029892;28;20115;-70
2023/10/27 08:01:17;;;;;;;3.75;0.98;;;;;;;;;;5032024;28;20136;-71
2023/10/27 08:03:45;;;;;;;3.28;0.52;;;;;;;;;;5029696;28;20128;-70
2023/10/27 08:06:13;;;;;;;5.30;0.90;;;;;;;;;;5036858;28;20042;-70
2023/10/27 08:08:40;;;;;;;1.63;0.70;;;;;;;;;;5040247;28;20051;-73
2023/10/27 08:11:07;;;;;;;1.73;0.80;;;;;;;;;;5033095;28;20053;-71
2023/10/27 08:13:33;;;;;;;2.20;0.90;;;;;;;;;;5030421;28;20046;-71
2023/10/27 08:16:02;;;;;;;2.95;1.00;;;;;;;;;;5028770;28;20042;-71
2023/10/27 08:18:28;;;;;;;2.78;0.73;;;;;;;;;;5030517;28;20132;-71
2023/10/27 08:20:56;;;;;;;3.72;0.90;;;;;;;;;;5029243;28;20136;-70
2023/10/27 08:23:22;;;;;;;4.68;0.85;;;;;;;;;;5031970;28;20052;-71
2023/10/27 08:25:52;;;;;;;3.17;0.98;;;;;;;;;;5032583;28;20045;-71
2023/10/27 08:28:22;;;;;;;4.47;0.87;;;;;;;;;;5031232;28;20615;-70
2023/10/27 08:30:48;;;;;;;5.55;1.00;;;;;;;;;;5032068;28;20049;-70
2023/10/27 08:33:15;;;;;;;5.32;1.35;;;;;;;;;;5031043;28;20061;-70
2023/10/27 08:35:43;;;;;;;3.05;0.90;;;;;;;;;;5030563;28;20046;-70
2023/10/27 08:38:09;;;;;;;3.45;0.90;;;;;;;;;;5030012;28;20050;-71
2023/10/27 08:40:36;;;;;;;2.85;0.70;;;;;;;;;;5030277;28;20061;-71
2023/10/27 08:43:03;;;;;;;2.20;0.75;;;;;;;;;;5028683;28;20045;-71
2023/10/27 08:45:32;;;;;;;3.17;0.80;;;;;;;;;;5010745;28;20453;-70
2023/10/27 08:48:02;;;;;;;2.50;0.70;;;;;;;;;;5029084;28;20146;-70
2023/10/27 08:50:29;;;;;;;3.30;0.70;;;;;;;;;;5028703;28;20081;-71
2023/10/27 08:52:56;;;;;;;3.55;0.90;;;;;;;;;;5028433;28;20399;-71
2023/10/27 08:55:25;;;;;;;4.22;0.70;;;;;;;;;;5028152;28;20091;-71
2023/10/27 08:57:55;;;;;;;3.63;0.60;;;;;;;;;;5026028;28;20049;-71
2023/10/27 09:00:22;;;;;;;2.80;0.63;;;;;;;;;;5028269;28;20046;-71
2023/10/27 09:02:49;;;;;;;2.28;0.60;;;;;;;;;;5025159;28;20057;-71
2023/10/27 09:05:17;;;;;;;1.70;0.73;;;;;;;;;;5027678;28;20044;-72
2023/10/27 09:07:45;;;;;;;3.95;0.60;;;;;;;;;;5027748;28;20046;-70
2023/10/27 09:10:13;;;;;;;4.88;0.88;;;;;;;;;;5028199;28;20056;-73
2023/10/27 09:12:41;;;;;;;4.00;0.55;;;;;;;;;;5029436;28;20489;-70
2023/10/27 09:15:09;;;;;;;2.92;0.60;;;;;;;;;;5027577;28;20128;-71
2023/10/27 09:17:56;;;;;;;2.03;0.68;;;;;;;;;;5030627;28;20041;-71
2023/10/27 09:20:24;;;;;;;0.98;0.60;;;;;;;;;;5031496;28;20049;-74
2023/10/27 09:22:57;;;;;;;1.98;0.70;;;;;;;;;;5026111;28;20136;-74
2023/10/27 09:25:29;;;;;;;5.45;1.00;;;;;;;;;;5028969;28;20120;-74
2023/10/27 09:28:01;;;;;;;3.97;0.73;;;;;;;;;;5032956;28;20047;-71
2023/10/27 09:30:32;;;;;;;3.38;0.73;;;;;;;;;;5033827;28;20535;-72
2023/10/27 09:33:20;;;;;;;3.45;1.00;;;;;;;;;;5035818;28;20051;-71
2023/10/27 09:35:49;;;;;;;2.00;0.88;;;;;;;;;;5042071;28;20334;-70
2023/10/27 09:38:17;;;;;;;3.60;0.80;;;;;;;;;;5042913;28;20083;-71
2023/10/27 09:40:48;;;;;;;4.03;0.80;;;;;;;;;;5043293;28;20072;-72
2023/10/27 09:43:25;;;;;;;6.00;1.02;;;;;;;;;;5043484;28;20107;-71
2023/10/27 09:45:55;;;;;;;3.08;0.80;;;;;;;;;;5043275;28;20301;-72
2023/10/27 09:48:27;;;;;;;4.18;0.85;;;;;;;;;;5043468;28;20047;-71
2023/10/27 09:51:10;;;;;;;2.65;0.80;;;;;;;;;;5033038;28;20091;-71
2023/10/27 09:53:39;;;;;;;2.70;0.82;;;;;;;;;;5031354;28;20049;-71
2023/10/27 09:56:07;;;;;;;1.88;0.70;;;;;;;;;;5031188;28;20051;-71
2023/10/27 09:58:35;;;;;;;1.85;0.60;;;;;;;;;;5031676;28;20050;-71
2023/10/27 10:01:05;;;;;;;3.83;0.98;;;;;;;;;;5031339;28;20053;-71
2023/10/27 10:03:32;;;;;;;3.88;0.70;;;;;;;;;;5039476;28;20045;-71
2023/10/27 10:06:18;;;;;;;1.70;0.70;;;;;;;;;;5042848;28;20077;-70
2023/10/27 10:09:10;;;;;;;1.80;0.80;;;;;;;;;;5040585;28;20072;-70
2023/10/27 10:11:55;;;;;;;2.13;0.60;;;;;;;;;;5037704;28;20061;-72
2023/10/27 10:14:36;;;;;;;4.03;0.98;;;;;;;;;;5040469;28;20072;-70
2023/10/27 10:17:06;;;;;;;1.98;0.80;;;;;;;;;;5025195;28;20380;-70
2023/10/27 10:19:55;;;;;;;3.08;0.80;;;;;;;;;;5038421;28;20694;-70
2023/10/27 10:22:40;;;;;;;2.05;0.60;;;;;;;;;;5040210;28;20072;-70
2023/10/27 10:25:25;;;;;;;2.22;0.73;;;;;;;;;;5033233;28;20064;-69
2023/10/27 10:28:07;;;;;;;1.50;0.40;;;;;;;;;;5039548;28;20679;-69
2023/10/27 10:30:38;;;;;;;1.35;0.50;;;;;;;;;;5040635;28;20057;-72
2023/10/27 10:33:16;;;;;;;;;;;;;;;;;;5040730;28;20041;-71
2023/10/27 10:35:45;;;;;;;2.08;0.43;;;;;;;;;;5039421;28;19917;-71
2023/10/27 10:38:21;;;;;;;1.98;0.40;;;;;;;;;;5040274;28;20128;-71
2023/10/27 10:40:52;;;;;;;0.82;0.32;;;;;;;;;;5040381;28;20121;-71
2023/10/27 10:43:38;;;;;;;1.02;0.60;;;;;;;;;;5040362;28;20117;-69
2023/10/27 10:46:12;;;;;;;1.00;0.30;;;;;;;;;;5039945;28;20048;-69
2023/10/27 10:48:46;;;;;;;2.35;0.40;;;;;;;;;;5042252;28;20067;-75
2023/10/27 10:51:15;;;;;;;2.15;0.40;;;;;;;;;;5038066;28;20501;-75
2023/10/27 10:53:53;;;;;;;1.33;0.35;;;;;;;;;;5037944;28;20106;-73
2023/10/27 10:56:20;;;;;;;1.58;0.40;;;;;;;;;;5036916;28;20417;-70
2023/10/27 10:58:47;;;;;;;1.75;0.40;;;;;;;;;;5039714;28;20050;-69
2023/10/27 11:01:22;;;;;;;0.82;0.20;;;;;;;;;;5041061;28;20091;-70
2023/10/27 11:03:54;;;;;;;1.80;0.57;;;;;;;;;;5039858;28;20052;-70
2023/10/27 11:06:25;;;;;;;1.05;0.30;;;;;;;;;;5038408;28;20037;-70
2023/10/27 11:08:53;;;;;;;2.15;0.40;;;;;;;;;;5039182;28;20118;-69
2023/10/27 11:11:20;;;;;;;1.63;0.52;;;;;;;;;;5040553;28;20041;-71
2023/10/27 11:13:52;;;;;;;0.85;0.45;;;;;;;;;;5035400;28;20045;-70
2023/10/27 11:16:22;;;;;;;1.20;0.45;;;;;;;;;;5037802;28;20053;-71
2023/10/27 11:18:59;;;;;;;1.42;0.50;;;;;;;;;;5041422;28;20116;-71
2023/10/27 11:21:29;;;;;;;1.13;0.38;;;;;;;;;;5040255;28;20293;-71
2023/10/27 11:23:56;;;;;;;1.30;0.40;;;;;;;;;;5040492;28;20113;-71
2023/10/27 11:26:25;;;;;;;3.13;0.50;;;;;;;;;;5041255;28;20066;-70
2023/10/27 11:28:54;;;;;;;2.40;0.45;;;;;;;;;;5041255;28;20324;-70
2023/10/27 11:31:30;;;;;;;1.67;0.50;;;;;;;;;;5041516;28;20356;-70
2023/10/27 11:34:05;;;;;;;2.42;0.50;;;;;;;;;;5041277;28;20056;-70
2023/10/27 11:36:35;;;;;;;0.55;0.25;;;;;;;;;;5041487;28;20053;-70
2023/10/27 11:39:23;;;;;;;0.80;0.30;;;;;;;;;;5041332;28;20045;-70
2023/10/27 11:41:51;;;;;;;0.52;0.17;;;;;;;;;;5041379;28;20309;-71
2023/10/27 11:44:18;;;;;;;0.30;0.20;;;;;;;;;;5041487;28;20045;-70
2023/10/27 11:46:53;;;;;;;0.90;0.30;;;;;;;;;;5035519;28;20041;-70
2023/10/27 11:49:21;;;;;;;0.90;0.20;;;;;;;;;;5020653;28;20385;-70
2023/10/27 11:51:52;;;;;;;1.23;0.30;;;;;;;;;;5021238;28;20047;-71
2023/10/27 11:54:19;;;;;;;1.98;0.50;;;;;;;;;;5020679;28;20053;-71
2023/10/27 11:56:46;;;;;;;1.20;0.32;;;;;;;;;;5017274;28;20085;-70
2023/10/27 11:59:14;;;;;;;1.13;0.22;;;;;;;;;;5013361;28;20050;-73
2023/10/27 12:01:40;;;;;;;3.08;0.50;;;;;;;;;;5013551;28;20502;-71
2023/10/27 12:04:09;;;;;;;1.42;0.20;;;;;;;;;;5018538;28;20227;-70
2023/10/27 12:06:43;;;;;;;2.03;0.50;;;;;;;;;;5021091;28;20052;-70
2023/10/27 12:09:12;;;;;;;2.15;0.55;;;;;;;;;;5016342;28;20046;-72
2023/10/27 12:11:41;;;;;;;1.48;0.32;;;;;;;;;;5009361;28;20053;-72
2023/10/27 12:14:10;;;;;;;4.25;0.50;;;;;;;;;;5009744;28;20067;-71
2023/10/27 12:16:38;;;;;;;1.95;0.40;;;;;;;;;;5021064;28;20052;-71
2023/10/27 12:19:09;;;;;;;1.10;0.43;;;;;;;;;;5040733;28;20045;-70
2023/10/27 12:21:38;;;;;;;2.22;0.50;;;;;;;;;;5039856;28;20116;-71
2023/10/27 12:24:05;;;;;;;1.48;0.30;;;;;;;;;;5030202;28;20041;-70
2023/10/27 12:26:32;;;;;;;2.03;0.57;;;;;;;;;;5038927;28;20052;-70
2023/10/27 12:28:58;;;;;;;0.80;0.40;;;;;;;;;;5033416;28;20461;-76
2023/10/27 12:31:25;;;;;;;2.72;0.60;;;;;;;;;;5034097;28;20057;-69
2023/10/27 12:33:52;;;;;;;2.53;0.47;;;;;;;;;;5028717;28;20096;-70
2023/10/27 12:36:18;;;;;;;0.75;0.35;;;;;;;;;;5028820;28;20413;-70
2023/10/27 12:38:47;;;;;;;1.85;0.50;;;;;;;;;;5028330;28;20049;-70
2023/10/27 12:41:13;;;;;;;1.98;0.50;;;;;;;;;;5028272;28;20041;-70
2023/10/27 12:43:40;;;;;;;2.15;0.30;;;;;;;;;;5028116;28;20505;-70
2023/10/27 12:46:07;;;;;;;2.72;0.50;;;;;;;;;;5027825;28;20041;-70
2023/10/27 12:48:34;;;;;;;1.23;0.40;;;;;;;;;;5026748;28;20050;-70
2023/10/27 12:51:01;;;;;;;1.77;0.32;;;;;;;;;;5026548;28;20053;-69
2023/10/27 12:53:28;;;;;;;1.67;0.40;;;;;;;;;;5026493;28;20490;-69
2023/10/27 12:55:55;;;;;;;1.13;0.30;;;;;;;;;;5026503;28;20049;-70
2023/10/27 12:58:23;;;;;;;1.63;0.55;;;;;;;;;;5026900;28;20045;-70
2023/10/27 13:00:50;;;;;;;0.35;0.22;;;;;;;;;;5026376;28;20052;-69
2023/10/27 13:03:17;;;;;;;1.05;0.43;;;;;;;;;;5028549;28;20132;-70
2023/10/27 13:05:44;;;;;;;1.73;0.50;;;;;;;;;;5028350;28;20049;-70
2023/10/27 13:08:12;;;;;;;0.93;0.40;;;;;;;;;;5027382;28;20045;-70
2023/10/27 13:10:40;;;;;;;0.68;0.32;;;;;;;;;;5028085;28;20056;-69
2023/10/27 13:13:07;;;;;;;0.60;0.30;;;;;;;;;;5027979;28;20141;-69
2023/10/27 13:15:34;;;;;;;1.45;0.30;;;;;;;;;;5028237;28;20046;-70
2023/10/27 13:18:05;;;;;;;0.80;0.30;;;;;;;;;;5027880;28;20524;-71
2023/10/27 13:20:32;;;;;;;0.80;0.35;;;;;;;;;;5028698;28;20045;-71
2023/10/27 13:22:59;;;;;;;2.38;0.52;;;;;;;;;;5027912;28;20132;-70
2023/10/27 13:25:26;;;;;;;1.75;0.43;;;;;;;;;;5028522;28;20048;-71
2023/10/27 13:27:53;;;;;;;2.10;0.52;;;;;;;;;;5028067;28;20164;-71
2023/10/27 13:30:20;;;;;;;1.13;0.30;;;;;;;;;;5028341;28;20049;-70
2023/10/27 13:32:49;;;;;;;2.60;0.52;;;;;;;;;;5010868;28;20049;-70
2023/10/27 13:35:20;;;;;;;0.40;0.30;;;;;;;;;;5028452;28;20050;-70
2023/10/27 13:37:47;;;;;;;0.77;0.40;;;;;;;;;;5027880;28;20049;-70
2023/10/27 13:40:18;;;;;;;2.22;0.50;;;;;;;;;;5027788;28;20064;-69
2023/10/27 13:42:48;;;;;;;0.32;0.17;;;;;;;;;;5028162;28;20132;-71
2023/10/27 13:45:15;;;;;;;2.13;0.40;;;;;;;;;;5027786;28;20095;-70
2023/10/27 13:47:44;;;;;;;1.50;0.50;;;;;;;;;;5027813;28;20046;-70
2023/10/27 13:50:12;;;;;;;4.28;0.43;;;;;;;;;;5028001;28;20054;-71
2023/10/27 13:52:38;;;;;;;1.35;0.55;;;;;;;;;;5027989;28;20071;-70
2023/10/27 13:55:08;;;;;;;0.80;0.30;;;;;;;;;;5027976;28;20120;-71
2023/10/27 13:57:35;;;;;;;1.50;0.45;;;;;;;;;;5027539;28;20046;-70
2023/10/27 14:00:03;;;;;;;1.77;0.57;;;;;;;;;;5028357;28;20050;-69
2023/10/27 14:02:30;;;;;;;1.20;0.40;;;;;;;;;;5027636;28;20049;-69
2023/10/27 14:04:57;;;;;;;3.95;0.40;;;;;;;;;;5027757;28;20088;-69
2023/10/27 14:07:25;;;;;;;1.38;0.43;;;;;;;;;;5027670;28;20046;-69
2023/10/27 14:09:52;;;;;;;3.55;0.45;;;;;;;;;;5027090;28;20045;-71
2023/10/27 14:12:18;;;;;;;1.00;0.38;;;;;;;;;;5028749;28;20063;-69
2023/10/27 14:14:45;;;;;;;0.93;0.40;;;;;;;;;;5031785;28;20056;-70
2023/10/27 14:17:12;;;;;;;0.65;0.20;;;;;;;;;;5030971;28;20051;-70
2023/10/27 14:19:39;;;;;;;1.38;0.38;;;;;;;;;;5031127;28;20413;-70
2023/10/27 14:22:05;;;;;;;0.60;0.40;;;;;;;;;;5031096;28;20052;-70
2023/10/27 14:24:35;;;;;;;1.40;0.40;;;;;;;;;;5030764;28;20647;-70
2023/10/27 14:27:01;;;;;;;2.53;0.28;;;;;;;;;;5031184;28;20049;-70
2023/10/27 14:29:28;;;;;;;2.05;0.43;;;;;;;;;;5031420;28;20502;-70
2023/10/27 14:31:55;;;;;;;1.88;0.40;;;;;;;;;;5031369;28;20111;-69
2023/10/27 14:34:21;;;;;;;0.63;0.32;;;;;;;;;;5031291;28;20053;-69
2023/10/27 14:36:49;;;;;;;1.25;0.55;;;;;;;;;;5031349;28;20130;-70
2023/10/27 14:39:16;;;;;;;0.52;0.38;;;;;;;;;;5030296;28;20132;-69
2023/10/27 14:41:43;;;;;;;0.60;0.25;;;;;;;;;;5030922;28;20046;-70
2023/10/27 14:44:11;;;;;;;1.05;0.40;;;;;;;;;;5030514;28;20045;-70
2023/10/27 14:46:38;;;;;;;1.95;0.43;;;;;;;;;;5030713;28;20394;-70
2023/10/27 14:49:06;;;;;;;1.00;0.40;;;;;;;;;;5030621;28;20076;-69
2023/10/27 14:51:34;;;;;;;1.45;0.32;;;;;;;;;;5030682;28;20497;-70